• Join FlightAware (Why Join?)
  • Login
  • US Flag 
02:22AM EDT


 

Airport Tracker/Info


-or-


 

Live Flight TrackerFlight Track Log ✈ SWA1728 ✈ 24-Apr-2013 ✈ KPHX - KLAX

Flight Track Log - Related Links

Times and Time Zones

All times are in EDT time to prevent confusion due to time zone crossing. See the SWA1728 flight status page for this flight to view local times or setup timezone preferences in your user account.

Time Position Orientation Groundspeed Altitude Reporting Facility
EDT Latitude Longitude Course Direction KTS MPH feet Rate Location/Type
09:22AM 33.4333 -111.9833 90° East 164 189 1,900  Level Phoenix TRACON
09:23AM 33.4333 -111.9333 90° East 214 246 3,200 2,220 Climbing Phoenix TRACON
09:24AM 33.4333 -111.8667 90° East 241 277 5,700 2,640 Climbing Phoenix TRACON
09:25AM 33.4050 -111.8222 127° Southeast 241 277 8,000 3,000 Climbing Albuquerque Center
09:26AM 33.3689 -111.8792 233° Southwest 230 265 11,600 2,940 Climbing Albuquerque Center
09:27AM 33.3753 -111.9617 275° West 249 287 14,000 1,980 Climbing Albuquerque Center
09:28AM 33.3858 -112.0667 277° West 320 368 15,700 2,280 Climbing Albuquerque Center
09:29AM 33.3964 -112.1833 276° West 347 399 18,700 2,700 Climbing Albuquerque Center
09:30AM 33.4075 -112.3025 276° West 357 411 21,300 2,760 Climbing Albuquerque Center
09:31AM 33.4206 -112.4511 276° West 373 429 24,400 2,400 Climbing Albuquerque Center
09:32AM 33.4317 -112.5756 276° West 376 433 26,200 1,260 Climbing Albuquerque Center
09:33AM 33.4614 -112.6867 288° West 403 464 27,000 2,040 Climbing Albuquerque Center
09:34AM 33.5114 -112.8378 292° West 411 473 30,400 2,400 Climbing Albuquerque Center
09:35AM 33.5503 -112.9556 292° West 392 451 32,000 780 Climbing Albuquerque Center
09:36AM 33.5908 -113.0825 291° West 401 461 32,000 1,140 Level Albuquerque Center
09:37AM 33.6319 -113.2056 292° West 402 463 34,400 1,920 Climbing Albuquerque Center
09:38AM 33.6694 -113.3194 292° West 388 447 36,000 780 Climbing Albuquerque Center
09:39AM 33.7064 -113.4367 291° West 378 435 36,000  Level Albuquerque Center
09:40AM 33.7453 -113.5564 291° West 381 438 36,000  Level Albuquerque Center
09:41AM 33.7844 -113.6756 292° West 382 440 36,000  Level Albuquerque Center
09:42AM 33.8233 -113.7950 291° West 384 442 36,000  Level Albuquerque Center
09:43AM 33.8678 -113.9394 290° West 383 441 36,000  Level Albuquerque Center
09:44AM 33.9072 -114.0603 292° West 386 444 36,000 -60 Level Albuquerque Center
09:45AM 33.9433 -114.1808 290° West 386 444 35,900  Descending Albuquerque Center
09:46AM 33.9433 -114.3069 270° West 377 434 36,000  Climbing Albuquerque Center
09:47AM 33.9447 -114.4178 271° West 374 430 36,000  Level Los Angeles Center
09:48AM 33.9464 -114.5433 271° West 376 433 36,000  Level Los Angeles Center
09:49AM 33.9494 -114.6939 271° West 376 433 36,000  Level Los Angeles Center
09:50AM 33.9506 -114.8197 271° West 376 433 36,000 -540 Level Los Angeles Center
09:51AM 33.9508 -114.9456 270° West 378 435 35,000 -1,020 Descending Los Angeles Center
09:52AM 33.9531 -115.0697 271° West 374 430 34,000 -540 Descending Los Angeles Center
09:53AM 33.9536 -115.1969 270° West 380 437 34,000  Level Los Angeles Center
09:54AM 33.9553 -115.3244 271° West 382 440 34,000  Level Los Angeles Center
09:55AM 33.9553 -115.4542 270° West 388 447 34,000  Level Los Angeles Center
09:56AM 33.9569 -115.5844 271° West 392 451 34,000 -300 Level Los Angeles Center
09:57AM 33.9572 -115.7417 270° West 393 452 33,500 -840 Descending Los Angeles Center
09:58AM 33.9572 -115.8708 270° West 389 448 32,400 -1,020 Descending Los Angeles Center
09:59AM 33.9578 -116.0006 270° West 389 448 31,500 -960 Descending Los Angeles Center
10:00AM 33.9578 -116.1317 270° West 392 451 30,500 -960 Descending Los Angeles Center
10:02AM 33.9575 -116.2656 270° West 400 460 29,600 -540 Descending Los Angeles Center
10:03AM 33.9572 -116.4006 270° West 403 464 29,500 -600 Descending Los Angeles Center
10:04AM 33.9578 -116.5358 270° West 405 466 28,400 -2,100 Descending Los Angeles Center
10:05AM 33.9569 -116.6944 270° West 398 458 25,300 -2,760 Descending Los Angeles Center
10:06AM 33.9553 -116.8225 269° West 387 445 22,800 -2,520 Descending Los Angeles Center
10:06AM 33.9500 -116.9333 267° West 355 409 20,700 -2,400 Descending Southern California TRACON
10:07AM 33.9500 -117.0333 270° West 354 407 18,500 -1,860 Descending Southern California TRACON
10:08AM 33.9500 -117.1500 270° West 344 396 17,000 -780 Descending Southern California TRACON
10:09AM 33.9333 -117.2667 260° West 347 399 17,000 -840 Level Southern California TRACON
10:11AM 33.9500 -117.4000 279° West 367 422 15,300 -1,920 Descending Southern California TRACON
10:12AM 33.9833 -117.5167 289° West 345 397 12,800 -2,160 Descending Southern California TRACON
10:13AM 34.0167 -117.6167 292° West 398 458 11,000 -1,560 Descending Southern California TRACON
10:13AM 34.0167 -117.7167 270° West 297 342 10,000 -1,320 Descending Southern California TRACON
10:14AM 34.0167 -117.8000 270° West 284 327 8,500 -1,560 Descending Southern California TRACON
10:15AM 34.0000 -117.9000 259° West 282 325 7,100 -1,080 Descending Southern California TRACON
10:16AM 34.0000 -117.9833 270° West 253 291 6,400 -1,140 Descending Southern California TRACON
10:17AM 33.9833 -118.0667 256° West 256 295 4,800 -1,200 Descending Southern California TRACON
10:18AM 33.9833 -118.1500 270° West 247 284 4,000 -600 Descending Southern California TRACON
10:19AM 33.9750 -118.1828 253° West 247 284 3,900 -960 Descending Los Angeles Center
10:20AM 33.9681 -118.2586 264° West 200 230 2,600 -1,080 Descending Los Angeles Center
10:21AM 33.9614 -118.3108 261° West 177 204 1,700 -840 Descending Los Angeles Center
10:22AM 33.9575 -118.3589 264° West 159 183 900 -780 Descending Los Angeles Center
10:23AM 33.9528 -118.4044 263° West 147 169 100 -780 Descending Los Angeles Center
10:25AM 33.9425 -118.4081 270° West  Level Estimated